createdAt,value
2019-04-05T00:00:45.324Z,44
2019-04-05T00:05:45.342Z,44
2019-04-05T00:10:45.310Z,43
2019-04-05T00:15:45.352Z,43
2019-04-05T00:20:45.326Z,41
2019-04-05T00:25:45.311Z,42
2019-04-05T00:30:45.304Z,40
2019-04-05T00:35:45.289Z,42
2019-04-05T00:40:45.251Z,39
2019-04-05T00:45:45.271Z,40
2019-04-05T00:50:45.275Z,43
2019-04-05T00:55:45.291Z,40
2019-04-05T01:00:45.228Z,39
2019-04-05T01:05:45.237Z,39
2019-04-05T01:10:45.232Z,40
2019-04-05T01:15:45.271Z,40
2019-04-05T01:20:45.220Z,40
2019-04-05T01:25:45.234Z,40
2019-04-05T01:30:45.195Z,41
2019-04-05T01:35:45.225Z,38
2019-04-05T01:40:45.224Z,41
2019-04-05T01:45:54.294Z,40
2019-04-05T01:50:45.196Z,38
2019-04-05T01:55:45.230Z,40
2019-04-05T02:00:45.207Z,41
2019-04-05T02:05:45.206Z,39
2019-04-05T02:10:45.159Z,40
2019-04-05T02:15:45.223Z,40
2019-04-05T02:20:45.206Z,37
2019-04-05T02:25:45.177Z,36
2019-04-05T02:30:45.189Z,36
2019-04-05T02:35:45.191Z,39
2019-04-05T02:40:45.172Z,38
2019-04-05T02:45:45.133Z,37
2019-04-05T02:50:45.150Z,38
2019-04-05T02:55:45.152Z,38
2019-04-05T03:00:45.152Z,40
2019-04-05T03:05:45.128Z,36
2019-04-05T03:10:45.124Z,36
2019-04-05T03:15:45.124Z,36
2019-04-05T03:20:45.123Z,38
2019-04-05T03:25:48.430Z,35
2019-04-05T03:30:45.106Z,37
2019-04-05T03:35:45.111Z,38
2019-04-05T03:40:45.091Z,38
2019-04-05T03:45:45.086Z,36
2019-04-05T03:50:45.641Z,37
2019-04-05T03:55:46.402Z,39
2019-04-05T04:00:45.048Z,37
2019-04-05T04:05:45.086Z,35
2019-04-05T04:10:45.069Z,38
2019-04-05T04:15:45.081Z,35
2019-04-05T04:20:45.128Z,38
2019-04-05T04:25:45.084Z,38
2019-04-05T04:30:45.062Z,39
2019-04-05T04:35:45.035Z,38
2019-04-05T04:40:45.042Z,42
2019-04-05T04:45:44.988Z,39
2019-04-05T04:50:44.985Z,40
2019-04-05T04:55:45.027Z,38
2019-04-05T05:00:44.988Z,42
2019-04-05T05:05:45.014Z,40
2019-04-05T05:10:44.985Z,41
2019-04-05T05:15:44.996Z,44
2019-04-05T05:20:44.993Z,42
2019-04-05T05:25:47.133Z,52
2019-04-05T05:30:45.056Z,103
2019-04-05T05:35:45.053Z,90
2019-04-05T05:40:44.974Z,100
2019-04-05T05:45:44.928Z,84
2019-04-05T05:50:44.969Z,78
2019-04-05T05:55:44.957Z,59
2019-04-05T06:00:44.904Z,50
2019-04-05T06:05:44.986Z,49
2019-04-05T06:10:44.903Z,49
2019-04-05T06:15:44.907Z,50
2019-04-05T06:20:44.967Z,49
2019-04-05T06:25:44.961Z,47
2019-04-05T06:30:44.889Z,49
2019-04-05T06:35:44.950Z,46
2019-04-05T06:40:44.907Z,48
2019-04-05T06:45:44.965Z,47
2019-04-05T06:50:47.703Z,48
2019-04-05T06:55:44.868Z,49
2019-04-05T07:00:57.646Z,48
2019-04-05T07:05:44.885Z,46
2019-04-05T07:10:45.426Z,49
2019-04-05T07:15:44.887Z,48
2019-04-05T07:20:44.856Z,46
2019-04-05T07:25:44.892Z,46
2019-04-05T07:30:44.823Z,46
2019-04-05T07:35:44.834Z,46
2019-04-05T07:40:44.886Z,46
2019-04-05T07:45:46.291Z,46
2019-04-05T07:50:44.815Z,46
2019-04-05T07:55:44.836Z,47
2019-04-05T08:00:44.840Z,48
2019-04-05T08:05:44.843Z,48
2019-04-05T08:10:44.792Z,46
2019-04-05T08:15:44.876Z,45
2019-04-05T08:20:44.792Z,44
2019-04-05T08:25:44.788Z,44
2019-04-05T08:30:44.797Z,42
2019-04-05T08:35:44.795Z,44
2019-04-05T08:40:44.766Z,42
2019-04-05T08:45:44.739Z,40
2019-04-05T08:50:44.760Z,40
2019-04-05T08:55:44.742Z,39
2019-04-05T09:00:46.388Z,41
2019-04-05T09:05:44.757Z,41
2019-04-05T09:10:44.725Z,41
2019-04-05T09:15:44.742Z,40
2019-04-05T09:20:44.769Z,39
2019-04-05T09:25:44.741Z,40
2019-04-05T09:30:44.720Z,37
2019-04-05T09:35:44.731Z,35
2019-04-05T09:40:44.858Z,34
2019-04-05T09:45:44.685Z,35
2019-04-05T09:50:44.701Z,33
2019-04-05T09:55:44.679Z,32
2019-04-05T10:00:44.679Z,32
2019-04-05T10:05:45.714Z,32
2019-04-05T10:10:44.674Z,28
2019-04-05T10:15:44.670Z,30
2019-04-05T10:20:44.696Z,28
2019-04-05T10:25:44.668Z,29
2019-04-05T10:30:44.655Z,29
2019-04-05T10:35:44.688Z,26
2019-04-05T10:40:44.658Z,28
2019-04-05T10:45:44.627Z,27
2019-04-05T10:50:44.650Z,25
2019-04-05T10:55:44.659Z,26
2019-04-05T11:00:44.661Z,29
2019-04-05T11:05:44.634Z,24
2019-04-05T11:10:44.638Z,31
2019-04-05T11:15:44.624Z,28
2019-04-05T11:20:44.653Z,30
2019-04-05T11:25:44.628Z,22
2019-04-05T11:30:44.605Z,26
2019-04-05T11:35:44.653Z,25
2019-04-05T11:40:44.635Z,22
2019-04-05T11:45:46.082Z,23
2019-04-05T11:50:44.608Z,24
2019-04-05T11:55:47.039Z,26
2019-04-05T12:00:44.541Z,25
2019-04-05T12:05:44.576Z,25
2019-04-05T12:10:44.586Z,28
2019-04-05T12:15:44.550Z,23
2019-04-05T12:20:59.511Z,22
2019-04-05T12:25:44.578Z,21
2019-04-05T12:30:46.248Z,22
2019-04-05T12:35:44.554Z,23
2019-04-05T12:40:44.595Z,24
2019-04-05T12:45:45.329Z,23
2019-04-05T12:50:45.510Z,22
2019-04-05T12:55:44.517Z,22
2019-04-05T13:00:44.531Z,23
2019-04-05T13:05:44.535Z,23
2019-04-05T13:10:44.511Z,23
2019-04-05T13:15:44.517Z,22
2019-04-05T13:20:44.538Z,26
2019-04-05T13:25:44.473Z,22
2019-04-05T13:30:44.472Z,22
2019-04-05T13:35:44.539Z,24
2019-04-05T13:40:44.470Z,22
2019-04-05T13:45:44.495Z,23
2019-04-05T13:50:44.482Z,22
2019-04-05T13:55:47.624Z,25
2019-04-05T14:00:49.589Z,25
2019-04-05T14:05:44.460Z,27
2019-04-05T14:10:44.483Z,30
2019-04-05T14:15:44.460Z,26
2019-04-05T14:20:44.519Z,30
2019-04-05T14:25:44.445Z,29
2019-04-05T14:30:44.495Z,28
2019-04-05T14:35:44.432Z,32
2019-04-05T14:40:44.432Z,30
2019-04-05T14:45:44.460Z,31
2019-04-05T14:50:44.453Z,30
2019-04-05T14:55:44.460Z,34
2019-04-05T15:00:48.390Z,32
2019-04-05T15:05:44.445Z,33
2019-04-05T15:10:44.388Z,34
2019-04-05T15:15:44.425Z,36
2019-04-05T15:20:44.426Z,38
2019-04-05T15:25:50.495Z,38
2019-04-05T15:30:49.925Z,38
2019-04-05T15:35:49.448Z,36
2019-04-05T15:40:49.411Z,36
2019-04-05T15:45:49.424Z,37
2019-04-05T15:50:52.936Z,36
2019-04-05T15:55:49.399Z,39
2019-04-05T16:00:49.385Z,42
2019-04-05T16:05:49.395Z,37
2019-04-05T16:10:49.452Z,36
2019-04-05T16:15:49.361Z,37
2019-04-05T16:20:49.393Z,51
2019-04-05T16:25:49.389Z,47
2019-04-05T16:30:49.354Z,44
2019-04-05T16:35:49.357Z,42
2019-04-05T16:40:49.373Z,40
2019-04-05T16:45:49.356Z,39
2019-04-05T16:50:49.345Z,40
2019-04-05T16:55:49.350Z,40
2019-04-05T17:00:49.355Z,40
2019-04-05T17:05:49.385Z,40
2019-04-05T17:10:49.371Z,40
2019-04-05T17:15:49.314Z,39
2019-04-05T17:20:49.425Z,39
2019-04-05T17:25:51.388Z,38
2019-04-05T17:30:49.337Z,38
2019-04-05T17:35:49.292Z,35
2019-04-05T17:40:49.335Z,38
2019-04-05T17:45:49.284Z,40
2019-04-05T17:50:49.352Z,40
2019-04-05T17:55:49.287Z,40
2019-04-05T18:00:49.311Z,39
2019-04-05T18:05:49.340Z,38
2019-04-05T18:10:49.250Z,41
2019-04-05T18:15:53.237Z,39
2019-04-05T18:20:49.279Z,43
2019-04-05T18:25:49.290Z,46
2019-04-05T18:30:49.308Z,43
2019-04-05T18:35:49.220Z,40
2019-04-05T18:40:49.243Z,44
2019-04-05T18:45:49.263Z,45
2019-04-05T18:50:49.254Z,42
2019-04-05T18:55:49.217Z,42
2019-04-05T19:00:49.272Z,44
2019-04-05T19:05:49.250Z,38
2019-04-05T19:10:49.223Z,39
2019-04-05T19:15:50.777Z,44
2019-04-05T19:20:50.748Z,43
2019-04-05T19:25:50.743Z,45
2019-04-05T19:50:50.749Z,46
2019-04-05T19:55:50.757Z,48
2019-04-05T20:00:50.724Z,48
2019-04-05T20:05:50.706Z,50
2019-04-05T20:10:50.721Z,52
2019-04-05T20:15:50.661Z,51
2019-04-05T20:20:50.724Z,50
2019-04-05T20:25:50.700Z,51
2019-04-05T20:30:50.673Z,52
2019-04-05T20:35:50.696Z,51
2019-04-05T20:40:50.695Z,51
2019-04-05T20:45:50.659Z,51
2019-04-05T20:50:50.645Z,51
2019-04-05T20:55:50.644Z,51
2019-04-05T21:40:51.364Z,52
2019-04-05T21:45:51.362Z,51
2019-04-05T21:50:51.366Z,54
2019-04-05T21:55:51.372Z,52
2019-04-05T22:00:51.322Z,52
2019-04-05T22:05:51.380Z,55
2019-04-05T22:10:51.358Z,57
2019-04-05T22:15:51.323Z,52
2019-04-05T22:20:51.315Z,51
2019-04-05T22:25:51.367Z,51
2019-04-05T22:30:51.342Z,53
2019-04-05T22:35:51.307Z,52
2019-04-05T22:40:51.342Z,51
2019-04-05T22:45:51.316Z,50
2019-04-05T22:50:51.313Z,52
2019-04-05T22:55:51.289Z,51
2019-04-05T23:00:51.303Z,50
2019-04-05T23:05:51.288Z,48
2019-04-05T23:10:51.266Z,51
2019-04-05T23:15:51.264Z,51
2019-04-05T23:20:51.314Z,50
2019-04-05T23:25:51.264Z,49
2019-04-05T23:30:51.296Z,52
2019-04-05T23:35:51.284Z,52
2019-04-05T23:40:51.256Z,52
2019-04-05T23:45:51.259Z,51
2019-04-05T23:50:51.232Z,50
2019-04-05T23:55:51.246Z,51
